Time;durP1;ratioP1;P1;durP2;ratioP2;P2;SDS_P1;SDS_P2;PMS_P1;PMS_P2;Temp;Humidity;BMP_temperature;BMP_pressure;BME280_temperature;BME280_humidity;BME280_pressure;Samples;Min_cycle;Max_cycle;Signal;HPM_P1;HPM_P2
2021/12/13 00:02:10;;;;;;;49.38;26.55;;;4.40;99.90;;;;;;5090844;28;20036;-78
2021/12/13 00:04:44;;;;;;;66.75;34.55;;;4.50;99.90;;;;;;5090800;28;20399;-78
2021/12/13 00:07:32;;;;;;;61.83;30.30;;;4.40;99.90;;;;;;5092086;28;20510;-78
2021/12/13 00:10:04;;;;;;;52.05;27.30;;;4.50;99.90;;;;;;5095008;28;20507;-77
2021/12/13 00:12:43;;;;;;;61.45;28.50;;;4.50;99.90;;;;;;5095597;28;20176;-78
2021/12/13 00:15:25;;;;;;;39.40;25.27;;;4.50;99.90;;;;;;5083288;28;20040;-77
2021/12/13 00:17:53;;;;;;;40.97;25.05;;;4.50;99.90;;;;;;5076185;28;20044;-75
2021/12/13 00:20:38;;;;;;;51.10;28.67;;;4.50;99.90;;;;;;5075943;28;20036;-78
2021/12/13 00:23:37;;;;;;;53.53;28.80;;;4.60;99.90;;;;;;5076437;28;20035;-78
2021/12/13 00:26:04;;;;;;;53.78;28.80;;;4.50;99.90;;;;;;5073483;28;20132;-77
2021/12/13 00:28:40;;;;;;;43.55;24.88;;;4.50;99.90;;;;;;5076320;28;20060;-78
2021/12/13 00:31:25;;;;;;;40.33;23.40;;;4.60;99.90;;;;;;5076308;28;20446;-78
2021/12/13 00:34:33;;;;;;;50.58;26.88;;;4.50;99.90;;;;;;5076415;28;20145;-78
2021/12/13 00:37:11;;;;;;;38.53;23.83;;;4.50;99.90;;;;;;5013529;28;20041;-76
2021/12/13 00:39:57;;;;;;;40.63;23.23;;;4.60;99.90;;;;;;5013897;28;20045;-78
2021/12/13 00:42:29;;;;;;;39.53;23.58;;;4.60;99.90;;;;;;5057779;28;20101;-78
2021/12/13 00:44:59;;;;;;;67.90;29.52;;;4.60;99.90;;;;;;5078413;28;20032;-78
2021/12/13 00:47:30;;;;;;;58.30;28.20;;;4.60;99.90;;;;;;5084698;28;20036;-74
2021/12/13 00:50:06;;;;;;;54.45;28.50;;;4.60;99.90;;;;;;5075901;28;20044;-76
2021/12/13 00:52:34;;;;;;;48.15;27.13;;;4.60;99.90;;;;;;5076071;28;20036;-76
2021/12/13 00:55:00;;;;;;;45.40;26.20;;;4.60;99.90;;;;;;5076050;28;20392;-76
2021/12/13 00:57:29;;;;;;;35.90;20.52;;;4.60;99.90;;;;;;5076022;28;20411;-76
2021/12/13 01:00:03;;;;;;;34.95;19.63;;;4.60;99.90;;;;;;5075881;28;20051;-76
2021/12/13 01:02:38;;;;;;;36.35;18.35;;;4.60;99.90;;;;;;5075601;28;20858;-77
2021/12/13 01:05:15;;;;;;;43.38;21.58;;;4.60;99.90;;;;;;5075654;28;20082;-75
2021/12/13 01:07:58;;;;;;;37.95;20.88;;;4.70;99.90;;;;;;5075711;28;20028;-76
2021/12/13 01:10:41;;;;;;;40.75;20.85;;;4.60;99.90;;;;;;5091349;28;20087;-76
2021/12/13 01:13:12;;;;;;;46.63;23.95;;;4.60;99.90;;;;;;5075743;28;20040;-77
2021/12/13 01:15:48;;;;;;;38.08;23.15;;;4.60;99.90;;;;;;5075607;28;20052;-76
2021/12/13 01:18:29;;;;;;;34.00;21.52;;;4.50;99.90;;;;;;5075283;28;20048;-77
2021/12/13 01:21:14;;;;;;;;;;;4.50;99.90;;;;;;5077619;28;20463;-76
2021/12/13 01:23:52;;;;;;;44.72;24.48;;;4.50;99.90;;;;;;5075383;28;20371;-76
2021/12/13 01:28:58;;;;;;;36.30;22.75;;;4.40;99.90;;;;;;5075176;28;20048;-76
2021/12/13 01:31:33;;;;;;;54.03;23.13;;;4.50;99.90;;;;;;5085148;28;20032;-76
2021/12/13 01:34:02;;;;;;;49.97;24.70;;;4.40;99.90;;;;;;5075211;28;20522;-76
2021/12/13 01:36:42;;;;;;;47.85;24.85;;;4.50;99.90;;;;;;5075020;28;20049;-76
2021/12/13 01:39:15;;;;;;;243.57;41.53;;;4.40;99.90;;;;;;5075118;28;20040;-75
2021/12/13 01:41:53;;;;;;;48.05;29.23;;;4.40;99.90;;;;;;5074671;28;20041;-75
2021/12/13 01:44:25;;;;;;;63.15;27.10;;;4.40;99.90;;;;;;5074832;28;20554;-75
2021/12/13 01:46:56;;;;;;;153.45;28.85;;;4.40;99.90;;;;;;5074856;28;20050;-75
2021/12/13 01:49:36;;;;;;;157.93;26.52;;;4.20;99.90;;;;;;5074932;28;20048;-75
2021/12/13 01:52:03;;;;;;;128.35;24.42;;;4.20;99.90;;;;;;5074950;28;20098;-75
2021/12/13 01:54:29;;;;;;;209.27;26.45;;;4.20;99.90;;;;;;5075060;28;20496;-75
2021/12/13 02:00:07;;;;;;;41.08;22.75;;;4.20;99.90;;;;;;5074946;28;20041;-76
2021/12/13 02:02:35;;;;;;;;;;;4.10;99.90;;;;;;5075330;28;20115;-76
2021/12/13 02:05:15;;;;;;;36.28;22.00;;;4.10;99.90;;;;;;5074905;28;19908;-74
2021/12/13 02:07:41;;;;;;;35.50;22.10;;;4.10;99.90;;;;;;5074966;28;20519;-75
2021/12/13 02:10:15;;;;;;;40.70;21.95;;;4.10;99.90;;;;;;5074723;28;20084;-76
2021/12/13 02:12:44;;;;;;;41.70;23.02;;;4.10;99.90;;;;;;5074593;28;20086;-75
2021/12/13 02:18:00;;;;;;;35.05;21.65;;;4.10;99.90;;;;;;5074375;28;20040;-75
2021/12/13 02:20:35;;;;;;;31.55;21.35;;;4.20;99.90;;;;;;5074307;28;20048;-75
2021/12/13 02:23:01;;;;;;;36.10;22.80;;;4.30;99.90;;;;;;5075460;28;20043;-75
2021/12/13 02:25:32;;;;;;;40.72;22.60;;;4.30;99.90;;;;;;5094161;28;20124;-76
2021/12/13 02:28:12;;;;;;;41.60;23.33;;;4.30;99.90;;;;;;5094281;28;20044;-76
2021/12/13 02:30:54;;;;;;;33.43;20.27;;;4.40;99.90;;;;;;5093962;28;20036;-74
2021/12/13 02:33:24;;;;;;;237.10;29.73;;;4.40;99.90;;;;;;5094494;28;20632;-75
2021/12/13 02:35:59;;;;;;;556.58;48.08;;;4.30;99.90;;;;;;5094478;28;20050;-75
2021/12/13 02:38:26;;;;;;;149.20;33.67;;;4.30;99.90;;;;;;5076205;28;20047;-75
2021/12/13 02:40:54;;;;;;;1043.18;67.10;;;4.40;99.90;;;;;;5094451;28;20043;-75
2021/12/13 02:43:25;;;;;;;452.27;43.50;;;4.40;99.90;;;;;;5094282;28;20056;-76
2021/12/13 02:45:54;;;;;;;44.25;27.27;;;4.40;99.90;;;;;;5094113;28;20121;-76
2021/12/13 02:48:28;;;;;;;38.88;23.35;;;4.40;99.90;;;;;;5093644;28;20044;-75
2021/12/13 02:51:10;;;;;;;55.92;26.48;;;4.30;99.90;;;;;;5094310;28;20058;-74
2021/12/13 02:53:46;;;;;;;51.92;24.08;;;4.30;99.90;;;;;;5094222;28;20036;-76
2021/12/13 02:56:15;;;;;;;56.72;26.48;;;4.40;99.90;;;;;;5094161;28;20036;-74
2021/12/13 02:58:41;;;;;;;46.33;27.58;;;4.40;99.90;;;;;;5093961;28;20051;-75
2021/12/13 03:01:12;;;;;;;50.92;25.88;;;4.40;99.90;;;;;;5093962;28;20044;-76
2021/12/13 03:03:42;;;;;;;49.88;26.05;;;4.20;99.90;;;;;;5093821;28;20503;-75
2021/12/13 03:06:10;;;;;;;34.97;21.43;;;4.10;99.90;;;;;;5087460;28;20032;-76
2021/12/13 03:08:53;;;;;;;188.25;22.58;;;4.20;99.90;;;;;;5071410;28;20067;-76
2021/12/13 03:11:25;;;;;;;302.52;28.90;;;4.20;99.90;;;;;;5071895;28;20052;-76
2021/12/13 03:14:01;;;;;;;39.88;19.63;;;4.30;99.90;;;;;;5073415;28;20040;-74
2021/12/13 03:16:30;;;;;;;125.60;21.35;;;4.30;99.90;;;;;;5073532;28;20097;-78
2021/12/13 03:19:22;;;;;;;35.03;18.30;;;4.30;99.90;;;;;;5055421;28;20399;-75
2021/12/13 03:22:03;;;;;;;47.78;23.48;;;4.30;99.90;;;;;;5089823;28;20101;-75
2021/12/13 03:24:34;;;;;;;;;;;4.30;99.90;;;;;;5074603;28;20390;-75
2021/12/13 03:27:25;;;;;;;42.03;23.33;;;4.30;99.90;;;;;;5086982;28;19923;-73
2021/12/13 03:29:58;;;;;;;;;;;4.30;99.90;;;;;;5078161;28;20110;-75
2021/12/13 03:32:30;;;;;;;41.25;22.15;;;4.30;99.90;;;;;;5072973;28;19912;-73
2021/12/13 03:35:14;;;;;;;27.38;17.02;;;4.30;99.90;;;;;;5073007;28;20039;-73
2021/12/13 03:37:42;;;;;;;20.38;13.40;;;4.20;99.90;;;;;;5073062;28;20032;-75
2021/12/13 03:40:20;;;;;;;288.00;32.33;;;4.20;99.90;;;;;;5072978;28;20074;-75
2021/12/13 03:42:53;;;;;;;76.00;28.95;;;4.20;99.90;;;;;;5072008;28;20063;-75
2021/12/13 03:45:28;;;;;;;46.67;27.13;;;4.20;99.90;;;;;;5072750;28;20042;-74
2021/12/13 03:47:56;;;;;;;118.13;30.98;;;4.20;99.90;;;;;;5072621;28;20336;-75
2021/12/13 03:50:35;;;;;;;33.10;20.02;;;4.10;99.90;;;;;;5072899;28;20115;-75
2021/12/13 03:53:07;;;;;;;49.83;25.00;;;4.20;99.90;;;;;;5072765;28;20431;-74
2021/12/13 03:55:34;;;;;;;311.42;48.97;;;4.20;99.90;;;;;;5072743;28;20437;-75
2021/12/13 03:58:05;;;;;;;46.72;27.17;;;4.20;99.90;;;;;;5072560;28;20044;-73
2021/12/13 04:00:36;;;;;;;26.00;15.55;;;4.10;99.90;;;;;;5054755;28;20041;-75
2021/12/13 04:03:07;;;;;;;17.88;11.68;;;4.10;99.90;;;;;;5055032;28;20514;-75
2021/12/13 04:05:33;;;;;;;12.98;8.30;;;4.10;99.90;;;;;;5072648;28;20040;-77
2021/12/13 04:08:04;;;;;;;7.40;5.78;;;4.20;99.90;;;;;;5077209;28;20032;-74
2021/12/13 04:10:33;;;;;;;;;;;4.20;99.90;;;;;;5075915;28;20049;-74
2021/12/13 04:13:14;;;;;;;7.00;5.57;;;4.20;99.90;;;;;;5090466;28;20278;-74
2021/12/13 04:16:09;;;;;;;10.38;7.63;;;4.30;99.90;;;;;;5083780;28;20036;-74
2021/12/13 04:21:49;;;;;;;27.05;16.20;;;4.30;99.90;;;;;;5090172;28;20138;-74
2021/12/13 04:24:18;;;;;;;;;;;4.40;99.90;;;;;;5090670;28;20115;-75
2021/12/13 04:26:52;;;;;;;16.55;10.70;;;4.40;99.90;;;;;;5090707;28;19918;-75
2021/12/13 04:29:26;;;;;;;15.95;10.63;;;4.40;99.90;;;;;;5091831;28;20048;-76
2021/12/13 04:31:53;;;;;;;10.80;6.75;;;4.40;99.90;;;;;;5092431;28;20144;-75
2021/12/13 04:34:23;;;;;;;8.65;5.63;;;4.40;99.90;;;;;;5092392;28;20043;-75
2021/12/13 04:36:52;;;;;;;11.48;8.13;;;4.30;99.90;;;;;;5090225;28;20032;-75
2021/12/13 04:39:33;;;;;;;8.93;6.38;;;4.20;99.90;;;;;;5090806;28;20040;-75
2021/12/13 04:42:18;;;;;;;8.05;5.85;;;4.20;99.90;;;;;;5092479;28;20529;-75
2021/12/13 04:45:08;;;;;;;34.50;22.27;;;4.30;99.90;;;;;;5083312;28;20052;-75
2021/12/13 04:47:47;;;;;;;87.45;25.35;;;4.30;99.90;;;;;;5072032;28;20155;-74
2021/12/13 04:50:59;;;;;;;30.92;19.63;;;4.30;99.90;;;;;;5071900;28;20452;-73
2021/12/13 04:53:29;;;;;;;38.05;23.58;;;4.30;99.90;;;;;;5066514;28;20044;-73
2021/12/13 04:55:58;;;;;;;60.50;34.47;;;4.30;99.90;;;;;;5074336;28;20048;-73
2021/12/13 04:58:24;;;;;;;72.65;36.88;;;4.30;99.90;;;;;;5075745;28;20032;-73
2021/12/13 05:00:54;;;;;;;182.05;38.38;;;4.20;99.90;;;;;;5091379;28;20586;-73
2021/12/13 05:03:26;;;;;;;81.50;38.92;;;4.30;99.90;;;;;;5115411;28;20449;-73
2021/12/13 05:05:52;;;;;;;67.07;35.13;;;4.20;99.90;;;;;;5114491;28;20039;-73
2021/12/13 05:08:20;;;;;;;153.25;39.90;;;4.10;99.90;;;;;;5114091;28;20047;-73
2021/12/13 05:10:49;;;;;;;289.33;44.25;;;4.00;99.90;;;;;;5093863;28;20036;-73
2021/12/13 05:13:25;;;;;;;215.80;44.20;;;3.90;99.90;;;;;;5094304;28;20036;-74
2021/12/13 05:15:57;;;;;;;80.63;41.95;;;3.80;99.90;;;;;;5094565;28;20036;-74
2021/12/13 05:18:28;;;;;;;247.60;43.97;;;3.90;99.90;;;;;;5093993;28;20498;-74
2021/12/13 05:21:10;;;;;;;134.13;40.05;;;3.80;99.90;;;;;;5092654;28;20051;-74
2021/12/13 05:23:57;;;;;;;122.78;41.67;;;3.80;99.90;;;;;;5094280;28;20047;-74
2021/12/13 05:26:34;;;;;;;126.15;44.15;;;3.90;99.90;;;;;;5093899;28;20051;-74
2021/12/13 05:29:01;;;;;;;149.95;42.97;;;3.90;99.90;;;;;;5076908;28;20449;-74
2021/12/13 05:31:29;;;;;;;1010.28;75.50;;;3.90;99.90;;;;;;5093805;28;20100;-76
2021/12/13 05:34:01;;;;;;;674.33;59.42;;;3.90;99.90;;;;;;5094067;28;20534;-76
2021/12/13 05:36:33;;;;;;;187.60;42.17;;;3.90;99.90;;;;;;5086636;28;20071;-76
2021/12/13 05:39:14;;;;;;;129.52;40.55;;;3.90;99.90;;;;;;5073705;28;20040;-76
2021/12/13 05:41:49;;;;;;;626.75;60.75;;;3.90;99.90;;;;;;5073804;28;20090;-75
2021/12/13 05:44:33;;;;;;;742.75;60.55;;;3.90;99.90;;;;;;5075164;28;20101;-76
2021/12/13 05:47:04;;;;;;;274.15;45.97;;;3.80;99.90;;;;;;5073774;28;20513;-76
2021/12/13 05:49:36;;;;;;;68.65;38.83;;;3.90;99.90;;;;;;5074947;28;20075;-75
2021/12/13 05:52:13;;;;;;;218.55;138.90;;;4.00;99.90;;;;;;5097661;28;20036;-74
2021/12/13 05:54:53;;;;;;;216.77;46.38;;;4.00;99.90;;;;;;5108173;28;20048;-75
2021/12/13 05:57:30;;;;;;;63.37;40.57;;;4.00;99.90;;;;;;5094578;28;20044;-75
2021/12/13 06:00:20;;;;;;;73.60;37.30;;;4.00;99.90;;;;;;5097323;28;20031;-74
2021/12/13 06:03:04;;;;;;;56.50;36.50;;;4.00;99.90;;;;;;5104784;28;20043;-74
2021/12/13 06:05:38;;;;;;;76.13;41.85;;;4.00;99.90;;;;;;5103702;28;20104;-75
2021/12/13 06:08:20;;;;;;;181.98;122.15;;;3.90;99.90;;;;;;5098355;28;20628;-73
2021/12/13 06:10:46;;;;;;;176.93;102.93;;;4.00;99.90;;;;;;5094701;28;20134;-73
2021/12/13 06:13:56;;;;;;;104.70;39.72;;;4.50;99.90;;;;;;5094374;28;20067;-74
2021/12/13 06:16:24;;;;;;;356.92;46.50;;;4.20;99.90;;;;;;5012175;28;20459;-73
2021/12/13 06:19:07;;;;;;;85.93;32.95;;;4.10;99.90;;;;;;5012269;28;20042;-73
2021/12/13 06:22:00;;;;;;;79.55;29.73;;;4.10;99.90;;;;;;5062015;28;20095;-74
2021/12/13 06:24:31;;;;;;;50.85;32.22;;;4.00;99.90;;;;;;5095718;28;20036;-73
2021/12/13 06:27:17;;;;;;;69.57;32.90;;;4.10;99.90;;;;;;5108977;28;20040;-74
2021/12/13 06:29:59;;;;;;;47.75;30.27;;;4.00;99.90;;;;;;5093806;28;20048;-73
2021/12/13 06:32:29;;;;;;;45.78;28.08;;;4.00;99.90;;;;;;5093868;28;20040;-74
2021/12/13 06:35:00;;;;;;;48.25;28.27;;;3.90;99.90;;;;;;5093874;28;20117;-73
2021/12/13 06:37:30;;;;;;;122.65;27.60;;;4.00;99.90;;;;;;5094098;28;20040;-74
2021/12/13 06:40:19;;;;;;;50.13;22.38;;;4.00;99.90;;;;;;5094313;28;20131;-74
2021/12/13 06:42:45;;;;;;;58.17;28.83;;;4.10;99.90;;;;;;5094214;28;20487;-73
2021/12/13 06:45:20;;;;;;;51.67;30.73;;;4.10;99.90;;;;;;5082529;28;20685;-74
2021/12/13 06:47:52;;;;;;;56.33;31.75;;;4.20;99.90;;;;;;5074049;28;20036;-73
2021/12/13 06:50:21;;;;;;;61.17;31.27;;;4.00;99.90;;;;;;5073889;28;20518;-74
2021/12/13 06:52:47;;;;;;;55.65;32.85;;;3.90;99.90;;;;;;5073971;28;20040;-74
2021/12/13 06:55:16;;;;;;;59.38;31.25;;;4.00;99.90;;;;;;5073846;28;20040;-74
2021/12/13 06:57:47;;;;;;;45.92;29.10;;;4.10;99.90;;;;;;5073858;28;20055;-74
2021/12/13 07:00:21;;;;;;;44.40;28.15;;;4.10;99.90;;;;;;5073838;28;20054;-73
2021/12/13 07:03:00;;;;;;;56.25;32.08;;;4.10;99.90;;;;;;5073599;28;20151;-74
2021/12/13 07:05:43;;;;;;;76.30;44.08;;;4.10;99.90;;;;;;5073706;28;20043;-74
2021/12/13 07:08:11;;;;;;;60.95;38.55;;;4.10;99.90;;;;;;5073935;28;20038;-73
2021/12/13 07:10:51;;;;;;;72.07;45.03;;;4.00;99.90;;;;;;5080212;28;20040;-74
2021/12/13 07:13:20;;;;;;;67.05;36.45;;;4.00;99.90;;;;;;5071067;28;20153;-74
2021/12/13 07:15:54;;;;;;;64.78;35.33;;;4.10;99.90;;;;;;5071867;28;20114;-74
2021/12/13 07:18:29;;;;;;;73.57;37.05;;;4.00;99.90;;;;;;5079957;28;20407;-74
2021/12/13 07:21:05;;;;;;;80.47;32.17;;;4.00;99.90;;;;;;5093662;28;20081;-74
2021/12/13 07:23:51;;;;;;;63.45;33.03;;;4.00;99.90;;;;;;5093797;28;20050;-73
2021/12/13 07:26:35;;;;;;;75.18;37.53;;;3.90;99.90;;;;;;5092039;28;20044;-74
2021/12/13 07:29:07;;;;;;;363.77;41.78;;;3.90;99.90;;;;;;5093193;28;20040;-74
2021/12/13 07:31:33;;;;;;;71.45;37.88;;;3.90;99.90;;;;;;5093437;28;20097;-74
2021/12/13 07:34:15;;;;;;;99.70;39.83;;;3.90;99.90;;;;;;5092962;28;20044;-74
2021/12/13 07:36:41;;;;;;;79.65;42.53;;;3.90;99.90;;;;;;5093567;28;20035;-74
2021/12/13 07:39:15;;;;;;;91.60;42.45;;;3.90;99.90;;;;;;5093513;28;20598;-74
2021/12/13 07:41:50;;;;;;;72.05;38.72;;;3.90;99.90;;;;;;5093448;28;20429;-74
2021/12/13 07:44:31;;;;;;;84.03;38.72;;;3.90;99.90;;;;;;5093283;28;20123;-74
2021/12/13 07:47:25;;;;;;;668.28;54.83;;;3.90;99.90;;;;;;5093353;28;20067;-74
2021/12/13 07:49:57;;;;;;;126.10;37.20;;;3.90;99.90;;;;;;5090604;28;20047;-74
2021/12/13 07:52:28;;;;;;;71.85;36.05;;;4.00;99.90;;;;;;5092977;28;20074;-74
2021/12/13 07:54:55;;;;;;;167.18;35.08;;;4.00;99.90;;;;;;5093102;28;20039;-74
2021/12/13 07:57:30;;;;;;;159.20;39.38;;;4.00;99.90;;;;;;5092890;28;20092;-74
2021/12/13 07:59:57;;;;;;;81.95;37.13;;;4.00;99.90;;;;;;5093152;28;20036;-74
2021/12/13 08:02:33;;;;;;;72.90;36.15;;;4.00;99.90;;;;;;5093041;28;20036;-73
2021/12/13 08:05:12;;;;;;;53.60;29.55;;;4.00;99.90;;;;;;5092921;28;20423;-74
2021/12/13 08:07:54;;;;;;;69.53;34.08;;;3.90;99.90;;;;;;5092729;28;20491;-74
2021/12/13 08:10:33;;;;;;;65.00;32.42;;;3.90;99.90;;;;;;5092798;28;20048;-74
2021/12/13 08:13:07;;;;;;;171.73;32.45;;;3.90;99.90;;;;;;5092566;28;20039;-74
2021/12/13 08:15:56;;;;;;;287.23;35.40;;;3.80;99.90;;;;;;5092739;28;20044;-74
2021/12/13 08:18:32;;;;;;;51.10;28.40;;;3.80;99.90;;;;;;5092515;28;20035;-74
2021/12/13 08:21:12;;;;;;;123.85;32.17;;;3.90;99.90;;;;;;5074195;28;20046;-74
2021/12/13 08:23:49;;;;;;;86.80;31.38;;;3.90;99.90;;;;;;5072480;28;20055;-74
2021/12/13 08:26:27;;;;;;;60.15;27.38;;;3.90;99.90;;;;;;5072286;28;20059;-74
2021/12/13 08:28:57;;;;;;;48.50;27.33;;;3.80;99.90;;;;;;5073634;28;20044;-74
2021/12/13 08:31:24;;;;;;;378.38;31.80;;;3.90;99.90;;;;;;5076768;28;20048;-74
2021/12/13 08:33:57;;;;;;;190.90;28.85;;;3.80;99.90;;;;;;5076615;28;20127;-73
2021/12/13 08:36:42;;;;;;;122.32;26.88;;;3.80;99.90;;;;;;5075201;28;20052;-73
2021/12/13 08:39:17;;;;;;;41.88;23.75;;;3.90;99.90;;;;;;5076568;28;20392;-73
2021/12/13 08:41:55;;;;;;;27.38;15.07;;;3.90;99.90;;;;;;5076620;28;20405;-74
2021/12/13 08:44:28;;;;;;;27.13;15.75;;;3.90;99.90;;;;;;5076405;28;20049;-73
2021/12/13 08:46:56;;;;;;;21.20;11.85;;;3.80;99.90;;;;;;5076187;28;20032;-73
2021/12/13 08:49:37;;;;;;;20.17;11.40;;;3.80;99.90;;;;;;5075988;28;20048;-74
2021/12/13 08:52:20;;;;;;;14.32;9.23;;;3.80;99.90;;;;;;5076367;28;20527;-73
2021/12/13 08:55:05;;;;;;;12.73;7.68;;;3.80;99.90;;;;;;5076353;28;20491;-73
2021/12/13 08:57:36;;;;;;;14.80;9.25;;;3.90;99.90;;;;;;5075785;28;20056;-73
2021/12/13 09:00:33;;;;;;;47.60;18.40;;;3.90;99.90;;;;;;5075824;28;20591;-73
2021/12/13 09:03:18;;;;;;;30.17;17.45;;;3.90;99.90;;;;;;5075062;28;20033;-73
2021/12/13 09:05:50;;;;;;;17.10;11.45;;;4.00;99.90;;;;;;5057907;28;20403;-74
2021/12/13 09:08:30;;;;;;;15.40;10.43;;;3.90;99.90;;;;;;5075455;28;20487;-74
2021/12/13 09:11:15;;;;;;;16.63;9.80;;;3.90;99.90;;;;;;5075481;28;20419;-74
2021/12/13 09:14:10;;;;;;;18.42;11.68;;;3.90;99.90;;;;;;5075599;28;20123;-73
2021/12/13 09:17:16;;;;;;;29.45;13.95;;;4.00;99.90;;;;;;5075635;28;20056;-74
2021/12/13 09:19:47;;;;;;;20.35;10.10;;;3.80;99.90;;;;;;5074523;28;20123;-74
2021/12/13 09:22:28;;;;;;;11.43;6.80;;;3.90;99.90;;;;;;5075819;28;20051;-73
2021/12/13 09:25:15;;;;;;;12.93;9.40;;;3.90;99.90;;;;;;5075770;28;20568;-73
2021/12/13 09:27:41;;;;;;;15.60;10.27;;;4.00;99.90;;;;;;5075246;28;20080;-74
2021/12/13 09:30:13;;;;;;;18.13;10.13;;;4.00;99.90;;;;;;5075238;28;20436;-73
2021/12/13 09:32:59;;;;;;;36.13;11.13;;;4.00;99.90;;;;;;5079808;28;20039;-73
2021/12/13 09:35:48;;;;;;;17.35;11.82;;;4.00;99.90;;;;;;5075487;28;20040;-74
2021/12/13 09:38:31;;;;;;;19.25;11.35;;;4.00;99.90;;;;;;5075156;28;20037;-74
2021/12/13 09:41:00;;;;;;;23.48;12.98;;;4.00;99.90;;;;;;5073788;28;20601;-74
2021/12/13 09:43:37;;;;;;;19.50;11.45;;;3.90;99.90;;;;;;5075057;28;20089;-73
2021/12/13 09:46:04;;;;;;;19.08;11.05;;;4.00;99.90;;;;;;5074348;28;20064;-70
2021/12/13 09:48:43;;;;;;;16.75;11.45;;;4.00;99.90;;;;;;5085449;28;20380;-71
2021/12/13 09:51:35;;;;;;;16.70;11.23;;;4.10;99.90;;;;;;5075114;28;20470;-72
2021/12/13 09:54:04;;;;;;;21.40;13.15;;;4.10;99.90;;;;;;5058470;28;20109;-72
2021/12/13 09:56:36;;;;;;;18.55;11.55;;;4.10;99.90;;;;;;5072934;28;20028;-72
2021/12/13 09:59:13;;;;;;;27.52;13.25;;;4.10;99.90;;;;;;5072721;28;20068;-72
2021/12/13 10:01:40;;;;;;;20.15;11.40;;;4.10;99.90;;;;;;5072647;28;20036;-72
2021/12/13 10:04:14;;;;;;;18.35;12.77;;;4.00;99.90;;;;;;5094799;28;20042;-72
2021/12/13 10:06:47;;;;;;;23.60;13.85;;;4.00;99.90;;;;;;5093967;28;20040;-72
2021/12/13 10:09:35;;;;;;;84.97;18.23;;;4.10;99.90;;;;;;5093159;28;20094;-72
2021/12/13 10:12:35;;;;;;;15.85;11.55;;;4.10;99.90;;;;;;5072603;28;20107;-72
2021/12/13 10:15:12;;;;;;;18.30;12.35;;;4.00;99.90;;;;;;5068885;28;20596;-72
2021/12/13 10:17:43;;;;;;;24.38;15.15;;;3.90;99.90;;;;;;5076376;28;20043;-72
2021/12/13 10:20:32;;;;;;;53.58;17.17;;;4.00;99.90;;;;;;5077329;28;20033;-72
2021/12/13 10:22:59;;;;;;;156.70;20.17;;;4.10;99.90;;;;;;5074051;28;20161;-72
2021/12/13 10:25:33;;;;;;;34.85;16.10;;;4.00;99.90;;;;;;5092320;28;20146;-71
2021/12/13 10:28:00;;;;;;;30.25;14.85;;;4.00;99.90;;;;;;5083245;28;20537;-72
2021/12/13 10:30:34;;;;;;;308.65;25.85;;;3.80;99.90;;;;;;5093860;28;20043;-70
2021/12/13 10:33:03;;;;;;;56.10;17.00;;;3.80;99.90;;;;;;5092319;28;20044;-73
2021/12/13 10:35:32;;;;;;;132.93;18.95;;;3.90;99.90;;;;;;5092110;28;20051;-74
2021/12/13 10:38:06;;;;;;;27.45;16.02;;;4.20;99.90;;;;;;5094519;28;20426;-72
2021/12/13 10:40:38;;;;;;;54.85;18.52;;;4.20;99.90;;;;;;5086418;28;20036;-73
2021/12/13 10:43:09;;;;;;;83.80;43.58;;;4.10;99.90;;;;;;5086257;28;20083;-72
2021/12/13 10:45:39;;;;;;;;;;;4.20;99.90;;;;;;5088154;28;20036;-74
2021/12/13 10:48:07;;;;;;;173.23;22.77;;;4.20;99.90;;;;;;5060389;28;19947;-82
2021/12/13 10:50:39;;;;;;;28.48;17.17;;;4.00;99.90;;;;;;5076437;28;20604;-80
2021/12/13 10:53:09;;;;;;;39.78;17.75;;;3.90;99.90;;;;;;5071501;28;20395;-78
2021/12/13 10:55:44;;;;;;;26.23;16.42;;;3.90;99.90;;;;;;5071850;28;20455;-78
2021/12/13 10:58:14;;;;;;;36.35;18.98;;;3.80;99.90;;;;;;5071085;28;20059;-78
2021/12/13 11:00:47;;;;;;;33.13;18.73;;;3.80;99.90;;;;;;5071812;28;20569;-80
2021/12/13 11:03:17;;;;;;;28.23;18.05;;;3.80;99.90;;;;;;5072449;28;20464;-78
2021/12/13 11:05:44;;;;;;;132.55;23.08;;;4.00;99.90;;;;;;5073578;28;20028;-78
2021/12/13 11:08:15;;;;;;;67.43;20.20;;;4.10;99.90;;;;;;5073351;28;20032;-80
2021/12/13 11:10:48;;;;;;;41.33;19.63;;;4.10;99.90;;;;;;5072910;28;20036;-84
2021/12/13 11:13:15;;;;;;;33.85;20.40;;;4.00;99.90;;;;;;5071272;28;20044;-85
2021/12/13 11:15:44;;;;;;;35.85;23.58;;;4.00;99.90;;;;;;5071546;28;20039;-81
2021/12/13 11:18:18;;;;;;;34.20;22.65;;;4.10;99.90;;;;;;5086675;28;20373;-79
2021/12/13 11:20:50;;;;;;;44.92;25.90;;;4.20;99.90;;;;;;5071427;28;20138;-84
2021/12/13 11:23:19;;;;;;;34.85;22.70;;;4.30;99.90;;;;;;5070046;28;20122;-79
2021/12/13 11:25:56;;;;;;;30.73;19.90;;;4.30;99.90;;;;;;5068845;28;20044;-79
2021/12/13 11:28:24;;;;;;;58.00;19.60;;;4.30;99.90;;;;;;5084525;28;20031;-80
2021/12/13 11:30:53;;;;;;;50.87;18.77;;;4.10;99.90;;;;;;5091130;28;20143;-79
2021/12/13 11:33:42;;;;;;;31.48;19.77;;;4.00;99.90;;;;;;5090505;28;20315;-80
2021/12/13 11:36:08;;;;;;;39.53;20.80;;;4.10;99.90;;;;;;5053652;28;20074;-78
2021/12/13 11:39:12;;;;;;;34.45;21.38;;;4.30;99.90;;;;;;5091556;28;20044;-80
2021/12/13 11:42:07;;;;;;;144.13;25.48;;;4.30;99.90;;;;;;5090850;28;20523;-78
2021/12/13 11:45:10;;;;;;;43.35;18.52;;;4.30;99.90;;;;;;5090626;28;20051;-81
2021/12/13 11:47:54;;;;;;;69.18;21.35;;;3.80;99.90;;;;;;5092991;28;20047;-80
2021/12/13 11:50:57;;;;;;;142.15;25.17;;;3.80;99.90;;;;;;5091627;28;20070;-81
2021/12/13 11:53:44;;;;;;;34.65;21.02;;;4.00;99.90;;;;;;5091857;28;20479;-78
2021/12/13 11:56:34;;;;;;;109.40;22.85;;;4.00;99.90;;;;;;5090355;28;20036;-78
2021/12/13 11:59:19;;;;;;;99.40;20.02;;;4.10;99.90;;;;;;5089491;28;20032;-78
2021/12/13 12:02:03;;;;;;;40.05;22.92;;;3.90;99.90;;;;;;5092247;28;20036;-79
2021/12/13 12:05:08;;;;;;;42.90;20.15;;;4.00;99.90;;;;;;5090254;28;20483;-78
2021/12/13 12:07:58;;;;;;;51.55;22.33;;;4.00;99.90;;;;;;5049393;28;20040;-80
2021/12/13 12:10:37;;;;;;;181.47;26.00;;;4.10;99.90;;;;;;5092167;28;20074;-81
2021/12/13 12:13:20;;;;;;;36.88;22.00;;;4.00;99.90;;;;;;5090727;28;20048;-81
2021/12/13 12:15:46;;;;;;;64.20;36.75;;;4.00;99.90;;;;;;5090414;28;20066;-80
2021/12/13 12:18:19;;;;;;;241.35;25.85;;;4.10;99.90;;;;;;5090935;28;20040;-80
2021/12/13 12:21:10;;;;;;;28.52;17.40;;;4.10;99.90;;;;;;5091267;28;20050;-81
2021/12/13 12:23:38;;;;;;;38.25;17.05;;;4.00;99.90;;;;;;5090955;28;20067;-79
2021/12/13 12:26:04;;;;;;;58.58;23.83;;;3.90;99.90;;;;;;5090270;28;20052;-80
2021/12/13 12:28:33;;;;;;;49.33;18.83;;;4.00;99.90;;;;;;5090964;28;20063;-80
2021/12/13 12:31:00;;;;;;;43.50;24.35;;;3.90;99.90;;;;;;5090406;28;20093;-81
2021/12/13 12:33:31;;;;;;;39.72;24.95;;;3.90;99.90;;;;;;5091003;28;20153;-80
2021/12/13 12:36:02;;;;;;;63.15;20.85;;;4.00;99.90;;;;;;5090627;28;20039;-81
2021/12/13 12:38:34;;;;;;;427.98;34.35;;;4.10;99.90;;;;;;5090972;28;20572;-78
2021/12/13 12:41:11;;;;;;;368.58;31.27;;;3.90;99.90;;;;;;5090174;28;20396;-78
2021/12/13 12:43:41;;;;;;;656.00;43.15;;;4.00;99.90;;;;;;5090863;28;20031;-82
2021/12/13 12:46:13;;;;;;;302.60;30.65;;;4.00;99.90;;;;;;5090177;28;20081;-80
2021/12/13 12:48:54;;;;;;;680.65;47.97;;;3.90;99.90;;;;;;5090555;28;20074;-78
2021/12/13 12:51:23;;;;;;;38.30;18.70;;;3.90;99.90;;;;;;5091062;28;20039;-79
2021/12/13 12:53:55;;;;;;;142.55;24.40;;;3.80;99.90;;;;;;5090815;28;20040;-80
2021/12/13 12:56:29;;;;;;;443.83;37.53;;;3.80;99.90;;;;;;5090317;28;20490;-78
2021/12/13 12:59:09;;;;;;;27.95;19.67;;;3.80;99.90;;;;;;5090602;28;20047;-78
2021/12/13 13:01:40;;;;;;;68.20;20.67;;;3.80;99.90;;;;;;5090632;28;20532;-79
2021/12/13 13:04:09;;;;;;;119.68;21.55;;;3.80;99.90;;;;;;5090613;28;20047;-79
2021/12/13 13:06:35;;;;;;;250.18;26.15;;;3.90;99.90;;;;;;5090698;28;20039;-78
2021/12/13 13:09:09;;;;;;;102.85;21.85;;;3.80;99.90;;;;;;5090210;28;20048;-80
2021/12/13 13:11:35;;;;;;;340.10;29.70;;;3.90;99.90;;;;;;5089893;28;20104;-81
2021/12/13 13:14:02;;;;;;;130.65;22.10;;;3.90;99.90;;;;;;5090527;28;20036;-78
2021/12/13 13:16:36;;;;;;;210.57;29.77;;;3.90;99.90;;;;;;5094147;28;20044;-79
2021/12/13 13:19:04;;;;;;;42.65;26.08;;;3.90;99.90;;;;;;5093692;28;20035;-79
2021/12/13 13:21:30;;;;;;;34.50;21.17;;;3.90;99.90;;;;;;5093995;28;20360;-78
2021/12/13 13:24:00;;;;;;;23.00;16.20;;;4.10;99.90;;;;;;5087052;28;20029;-79
2021/12/13 13:26:31;;;;;;;611.88;46.55;;;4.70;99.90;;;;;;5073044;28;20149;-79
2021/12/13 13:29:03;;;;;;;37.75;23.08;;;4.50;99.90;;;;;;5073767;28;20044;-78
2021/12/13 13:31:39;;;;;;;38.92;25.73;;;4.40;99.90;;;;;;5078067;28;20048;-78
2021/12/13 13:34:13;;;;;;;66.40;37.72;;;4.30;99.90;;;;;;5092672;28;20036;-78